sensor_id;sensor_type;location;lat;lon;timestamp;temperature;humidity
12874;DHT22;6505;51.114;13.128;2023-06-22T00:00:27;27.80;56.50
12874;DHT22;6505;51.114;13.128;2023-06-22T00:02:57;27.80;56.70
12874;DHT22;6505;51.114;13.128;2023-06-22T00:05:26;27.70;56.70
12874;DHT22;6505;51.114;13.128;2023-06-22T00:07:54;27.70;56.70
12874;DHT22;6505;51.114;13.128;2023-06-22T00:10:22;27.70;56.80
12874;DHT22;6505;51.114;13.128;2023-06-22T00:12:49;27.60;56.90
12874;DHT22;6505;51.114;13.128;2023-06-22T00:15:17;27.60;56.90
12874;DHT22;6505;51.114;13.128;2023-06-22T00:17:45;27.60;57.00
12874;DHT22;6505;51.114;13.128;2023-06-22T00:20:15;27.60;57.00
12874;DHT22;6505;51.114;13.128;2023-06-22T00:22:45;27.60;57.10
12874;DHT22;6505;51.114;13.128;2023-06-22T00:25:14;27.50;56.90
12874;DHT22;6505;51.114;13.128;2023-06-22T00:27:42;27.50;56.90
12874;DHT22;6505;51.114;13.128;2023-06-22T00:30:11;27.50;56.80
12874;DHT22;6505;51.114;13.128;2023-06-22T00:32:39;27.50;56.90
12874;DHT22;6505;51.114;13.128;2023-06-22T00:35:07;27.40;56.70
12874;DHT22;6505;51.114;13.128;2023-06-22T00:37:38;27.40;56.70
12874;DHT22;6505;51.114;13.128;2023-06-22T00:40:09;27.40;56.70
12874;DHT22;6505;51.114;13.128;2023-06-22T00:42:39;27.30;56.70
12874;DHT22;6505;51.114;13.128;2023-06-22T00:45:08;27.40;56.70
12874;DHT22;6505;51.114;13.128;2023-06-22T00:47:36;27.30;56.70
12874;DHT22;6505;51.114;13.128;2023-06-22T00:50:06;27.30;56.50
12874;DHT22;6505;51.114;13.128;2023-06-22T00:52:38;27.30;56.80
12874;DHT22;6505;51.114;13.128;2023-06-22T00:55:10;27.30;56.80
12874;DHT22;6505;51.114;13.128;2023-06-22T00:57:38;27.20;56.80
12874;DHT22;6505;51.114;13.128;2023-06-22T01:00:07;27.20;56.80
12874;DHT22;6505;51.114;13.128;2023-06-22T01:02:38;27.10;57.00
12874;DHT22;6505;51.114;13.128;2023-06-22T01:05:08;27.10;56.90
12874;DHT22;6505;51.114;13.128;2023-06-22T01:07:41;27.10;56.90
12874;DHT22;6505;51.114;13.128;2023-06-22T01:10:19;27.10;57.10
12874;DHT22;6505;51.114;13.128;2023-06-22T01:12:56;27.00;57.10
12874;DHT22;6505;51.114;13.128;2023-06-22T01:15:33;27.00;57.00
12874;DHT22;6505;51.114;13.128;2023-06-22T01:18:06;27.00;57.10
12874;DHT22;6505;51.114;13.128;2023-06-22T01:20:37;27.00;57.10
12874;DHT22;6505;51.114;13.128;2023-06-22T01:23:11;27.00;57.10
12874;DHT22;6505;51.114;13.128;2023-06-22T01:26:02;26.90;57.00
12874;DHT22;6505;51.114;13.128;2023-06-22T01:28:45;26.90;57.20
12874;DHT22;6505;51.114;13.128;2023-06-22T01:31:16;26.90;57.30
12874;DHT22;6505;51.114;13.128;2023-06-22T01:33:50;26.80;57.00
12874;DHT22;6505;51.114;13.128;2023-06-22T01:36:21;26.80;57.10
12874;DHT22;6505;51.114;13.128;2023-06-22T01:38:52;26.80;57.20
12874;DHT22;6505;51.114;13.128;2023-06-22T01:41:24;26.80;57.10
12874;DHT22;6505;51.114;13.128;2023-06-22T01:43:55;26.80;57.20
12874;DHT22;6505;51.114;13.128;2023-06-22T01:46:24;26.70;57.10
12874;DHT22;6505;51.114;13.128;2023-06-22T01:48:53;26.70;57.20
12874;DHT22;6505;51.114;13.128;2023-06-22T01:51:21;26.70;57.10
12874;DHT22;6505;51.114;13.128;2023-06-22T01:53:49;26.70;57.10
12874;DHT22;6505;51.114;13.128;2023-06-22T01:56:18;26.60;57.10
12874;DHT22;6505;51.114;13.128;2023-06-22T01:58:50;26.60;57.10
12874;DHT22;6505;51.114;13.128;2023-06-22T02:01:31;26.60;57.30
12874;DHT22;6505;51.114;13.128;2023-06-22T02:04:08;26.60;57.30
12874;DHT22;6505;51.114;13.128;2023-06-22T02:06:43;26.50;57.20
12874;DHT22;6505;51.114;13.128;2023-06-22T02:09:16;26.60;57.30
12874;DHT22;6505;51.114;13.128;2023-06-22T02:11:46;26.50;57.30
12874;DHT22;6505;51.114;13.128;2023-06-22T02:14:16;26.50;57.40
12874;DHT22;6505;51.114;13.128;2023-06-22T02:16:46;26.50;57.60
12874;DHT22;6505;51.114;13.128;2023-06-22T02:19:14;26.50;57.50
12874;DHT22;6505;51.114;13.128;2023-06-22T02:21:45;26.40;57.40
12874;DHT22;6505;51.114;13.128;2023-06-22T02:24:13;26.50;57.50
12874;DHT22;6505;51.114;13.128;2023-06-22T02:26:42;26.40;57.50
12874;DHT22;6505;51.114;13.128;2023-06-22T02:29:12;26.40;57.60
12874;DHT22;6505;51.114;13.128;2023-06-22T02:31:43;26.40;57.60
12874;DHT22;6505;51.114;13.128;2023-06-22T02:34:11;26.40;57.60
12874;DHT22;6505;51.114;13.128;2023-06-22T02:36:45;26.30;57.50
12874;DHT22;6505;51.114;13.128;2023-06-22T02:39:19;26.40;57.70
12874;DHT22;6505;51.114;13.128;2023-06-22T02:41:49;26.30;57.50
12874;DHT22;6505;51.114;13.128;2023-06-22T02:44:17;26.20;57.50
12874;DHT22;6505;51.114;13.128;2023-06-22T02:46:49;26.20;57.60
12874;DHT22;6505;51.114;13.128;2023-06-22T02:49:17;26.20;57.60
12874;DHT22;6505;51.114;13.128;2023-06-22T02:51:47;26.20;57.50
12874;DHT22;6505;51.114;13.128;2023-06-22T02:54:19;26.20;57.80
12874;DHT22;6505;51.114;13.128;2023-06-22T02:56:49;26.20;57.70
12874;DHT22;6505;51.114;13.128;2023-06-22T02:59:17;26.10;57.50
12874;DHT22;6505;51.114;13.128;2023-06-22T03:01:57;26.10;57.50
12874;DHT22;6505;51.114;13.128;2023-06-22T03:04:29;26.10;57.50
12874;DHT22;6505;51.114;13.128;2023-06-22T03:06:58;26.10;57.50
12874;DHT22;6505;51.114;13.128;2023-06-22T03:09:29;26.10;57.60
12874;DHT22;6505;51.114;13.128;2023-06-22T03:11:57;26.10;57.60
12874;DHT22;6505;51.114;13.128;2023-06-22T03:14:32;26.00;57.60
12874;DHT22;6505;51.114;13.128;2023-06-22T03:17:04;26.10;57.80
12874;DHT22;6505;51.114;13.128;2023-06-22T03:19:36;26.00;57.80
12874;DHT22;6505;51.114;13.128;2023-06-22T03:22:04;26.00;57.90
12874;DHT22;6505;51.114;13.128;2023-06-22T03:24:33;26.00;58.00
12874;DHT22;6505;51.114;13.128;2023-06-22T03:27:01;26.00;57.90
12874;DHT22;6505;51.114;13.128;2023-06-22T03:29:33;25.90;57.90
12874;DHT22;6505;51.114;13.128;2023-06-22T03:32:03;25.90;57.90
12874;DHT22;6505;51.114;13.128;2023-06-22T03:34:32;25.90;58.10
12874;DHT22;6505;51.114;13.128;2023-06-22T03:37:01;25.90;58.10
12874;DHT22;6505;51.114;13.128;2023-06-22T03:39:29;25.90;58.80
12874;DHT22;6505;51.114;13.128;2023-06-22T03:41:57;25.90;58.30
12874;DHT22;6505;51.114;13.128;2023-06-22T03:44:26;25.90;58.30
12874;DHT22;6505;51.114;13.128;2023-06-22T03:46:53;25.90;58.40
12874;DHT22;6505;51.114;13.128;2023-06-22T03:49:23;25.80;58.40
12874;DHT22;6505;51.114;13.128;2023-06-22T03:51:51;25.90;58.50
12874;DHT22;6505;51.114;13.128;2023-06-22T03:54:19;25.80;58.50
12874;DHT22;6505;51.114;13.128;2023-06-22T03:56:47;25.90;58.60
12874;DHT22;6505;51.114;13.128;2023-06-22T03:59:14;25.80;58.70
12874;DHT22;6505;51.114;13.128;2023-06-22T04:01:43;25.80;58.80
12874;DHT22;6505;51.114;13.128;2023-06-22T04:04:11;25.80;59.00
12874;DHT22;6505;51.114;13.128;2023-06-22T04:06:41;25.80;59.00
12874;DHT22;6505;51.114;13.128;2023-06-22T04:09:09;25.80;59.10
12874;DHT22;6505;51.114;13.128;2023-06-22T04:11:37;25.80;59.10
12874;DHT22;6505;51.114;13.128;2023-06-22T04:14:05;25.80;59.10
12874;DHT22;6505;51.114;13.128;2023-06-22T04:16:33;25.80;59.10
12874;DHT22;6505;51.114;13.128;2023-06-22T04:19:01;25.80;59.20
12874;DHT22;6505;51.114;13.128;2023-06-22T04:21:29;25.80;59.10
12874;DHT22;6505;51.114;13.128;2023-06-22T04:23:59;25.80;59.30
12874;DHT22;6505;51.114;13.128;2023-06-22T04:26:27;25.80;59.70
12874;DHT22;6505;51.114;13.128;2023-06-22T04:28:55;25.80;60.00
12874;DHT22;6505;51.114;13.128;2023-06-22T04:31:22;25.80;60.10
12874;DHT22;6505;51.114;13.128;2023-06-22T04:33:54;25.80;60.40
12874;DHT22;6505;51.114;13.128;2023-06-22T04:36:22;25.80;60.60
12874;DHT22;6505;51.114;13.128;2023-06-22T04:38:51;25.80;60.70
12874;DHT22;6505;51.114;13.128;2023-06-22T04:41:21;25.90;60.70
12874;DHT22;6505;51.114;13.128;2023-06-22T04:43:51;25.80;61.00
12874;DHT22;6505;51.114;13.128;2023-06-22T04:46:20;25.80;61.20
12874;DHT22;6505;51.114;13.128;2023-06-22T04:48:48;25.90;61.30
12874;DHT22;6505;51.114;13.128;2023-06-22T04:51:16;25.90;61.40
12874;DHT22;6505;51.114;13.128;2023-06-22T04:53:48;25.90;61.60
12874;DHT22;6505;51.114;13.128;2023-06-22T04:56:16;25.90;61.90
12874;DHT22;6505;51.114;13.128;2023-06-22T04:58:45;25.90;61.90
12874;DHT22;6505;51.114;13.128;2023-06-22T05:01:13;25.90;62.20
12874;DHT22;6505;51.114;13.128;2023-06-22T05:03:41;25.90;62.10
12874;DHT22;6505;51.114;13.128;2023-06-22T05:06:10;25.90;62.10
12874;DHT22;6505;51.114;13.128;2023-06-22T05:08:41;25.90;62.40
12874;DHT22;6505;51.114;13.128;2023-06-22T05:11:08;25.90;62.70
12874;DHT22;6505;51.114;13.128;2023-06-22T05:13:37;26.00;63.80
12874;DHT22;6505;51.114;13.128;2023-06-22T05:16:06;25.90;63.20
12874;DHT22;6505;51.114;13.128;2023-06-22T05:18:34;26.00;63.40
12874;DHT22;6505;51.114;13.128;2023-06-22T05:21:02;26.00;63.30
12874;DHT22;6505;51.114;13.128;2023-06-22T05:23:31;26.10;63.60
12874;DHT22;6505;51.114;13.128;2023-06-22T05:25:58;26.10;63.80
12874;DHT22;6505;51.114;13.128;2023-06-22T05:28:26;26.10;64.10
12874;DHT22;6505;51.114;13.128;2023-06-22T05:30:54;26.10;64.10
12874;DHT22;6505;51.114;13.128;2023-06-22T05:33:24;26.20;64.70
12874;DHT22;6505;51.114;13.128;2023-06-22T05:35:52;26.20;65.00
12874;DHT22;6505;51.114;13.128;2023-06-22T05:38:20;26.20;65.00
12874;DHT22;6505;51.114;13.128;2023-06-22T05:40:48;26.30;64.90
12874;DHT22;6505;51.114;13.128;2023-06-22T05:43:16;26.30;64.90
12874;DHT22;6505;51.114;13.128;2023-06-22T05:45:43;26.30;64.90
12874;DHT22;6505;51.114;13.128;2023-06-22T05:48:11;26.40;65.30
12874;DHT22;6505;51.114;13.128;2023-06-22T05:50:41;26.50;65.30
12874;DHT22;6505;51.114;13.128;2023-06-22T05:53:09;26.50;65.50
12874;DHT22;6505;51.114;13.128;2023-06-22T05:55:37;26.50;65.30
12874;DHT22;6505;51.114;13.128;2023-06-22T05:58:05;26.60;65.50
12874;DHT22;6505;51.114;13.128;2023-06-22T06:00:33;26.60;65.40
12874;DHT22;6505;51.114;13.128;2023-06-22T06:03:01;26.60;65.80
12874;DHT22;6505;51.114;13.128;2023-06-22T06:05:30;26.70;65.40
12874;DHT22;6505;51.114;13.128;2023-06-22T06:08:00;26.70;65.40
12874;DHT22;6505;51.114;13.128;2023-06-22T06:10:29;26.80;65.50
12874;DHT22;6505;51.114;13.128;2023-06-22T06:12:59;26.80;65.40
12874;DHT22;6505;51.114;13.128;2023-06-22T06:15:29;26.80;65.00
12874;DHT22;6505;51.114;13.128;2023-06-22T06:17:57;26.90;65.00
12874;DHT22;6505;51.114;13.128;2023-06-22T06:20:26;27.00;64.80
12874;DHT22;6505;51.114;13.128;2023-06-22T06:22:56;27.00;64.50
12874;DHT22;6505;51.114;13.128;2023-06-22T06:25:25;27.00;64.60
12874;DHT22;6505;51.114;13.128;2023-06-22T06:27:53;27.00;64.40
12874;DHT22;6505;51.114;13.128;2023-06-22T06:30:22;27.10;64.40
12874;DHT22;6505;51.114;13.128;2023-06-22T06:32:50;27.10;64.30
12874;DHT22;6505;51.114;13.128;2023-06-22T06:35:18;27.10;63.90
12874;DHT22;6505;51.114;13.128;2023-06-22T06:37:48;27.10;63.80
12874;DHT22;6505;51.114;13.128;2023-06-22T06:40:18;27.10;64.00
12874;DHT22;6505;51.114;13.128;2023-06-22T06:42:48;27.20;64.20
12874;DHT22;6505;51.114;13.128;2023-06-22T06:45:19;27.20;64.40
12874;DHT22;6505;51.114;13.128;2023-06-22T06:47:50;27.30;64.40
12874;DHT22;6505;51.114;13.128;2023-06-22T06:50:19;27.30;65.10
12874;DHT22;6505;51.114;13.128;2023-06-22T06:52:47;27.30;65.00
12874;DHT22;6505;51.114;13.128;2023-06-22T06:55:16;27.40;65.50
12874;DHT22;6505;51.114;13.128;2023-06-22T06:57:47;27.50;66.00
12874;DHT22;6505;51.114;13.128;2023-06-22T07:00:17;27.50;65.30
12874;DHT22;6505;51.114;13.128;2023-06-22T07:02:46;27.60;66.30
12874;DHT22;6505;51.114;13.128;2023-06-22T07:05:15;27.60;65.00
12874;DHT22;6505;51.114;13.128;2023-06-22T07:07:43;27.70;65.10
12874;DHT22;6505;51.114;13.128;2023-06-22T07:10:11;27.70;64.60
12874;DHT22;6505;51.114;13.128;2023-06-22T07:12:39;27.70;64.20
12874;DHT22;6505;51.114;13.128;2023-06-22T07:15:10;27.80;64.80
12874;DHT22;6505;51.114;13.128;2023-06-22T07:17:40;27.80;64.30
12874;DHT22;6505;51.114;13.128;2023-06-22T07:20:09;27.90;64.00
12874;DHT22;6505;51.114;13.128;2023-06-22T07:22:51;27.90;63.90
12874;DHT22;6505;51.114;13.128;2023-06-22T07:25:20;27.90;63.60
12874;DHT22;6505;51.114;13.128;2023-06-22T07:27:57;28.00;63.20
12874;DHT22;6505;51.114;13.128;2023-06-22T07:30:29;28.00;63.90
12874;DHT22;6505;51.114;13.128;2023-06-22T07:32:58;28.10;63.00
12874;DHT22;6505;51.114;13.128;2023-06-22T07:35:30;28.10;62.80
12874;DHT22;6505;51.114;13.128;2023-06-22T07:37:58;28.10;62.80
12874;DHT22;6505;51.114;13.128;2023-06-22T07:40:31;28.20;62.70
12874;DHT22;6505;51.114;13.128;2023-06-22T07:43:00;28.30;63.00
12874;DHT22;6505;51.114;13.128;2023-06-22T07:45:30;28.40;62.70
12874;DHT22;6505;51.114;13.128;2023-06-22T07:48:00;28.40;62.80
12874;DHT22;6505;51.114;13.128;2023-06-22T07:50:28;28.50;62.90
12874;DHT22;6505;51.114;13.128;2023-06-22T07:52:56;28.60;63.00
12874;DHT22;6505;51.114;13.128;2023-06-22T07:55:24;28.60;62.10
12874;DHT22;6505;51.114;13.128;2023-06-22T07:57:52;28.70;61.80
12874;DHT22;6505;51.114;13.128;2023-06-22T08:00:21;28.80;61.30
12874;DHT22;6505;51.114;13.128;2023-06-22T08:02:50;28.90;61.40
12874;DHT22;6505;51.114;13.128;2023-06-22T08:05:19;28.90;61.40
12874;DHT22;6505;51.114;13.128;2023-06-22T08:07:48;29.00;61.40
12874;DHT22;6505;51.114;13.128;2023-06-22T08:10:17;29.00;62.20
12874;DHT22;6505;51.114;13.128;2023-06-22T08:12:46;29.10;61.60
12874;DHT22;6505;51.114;13.128;2023-06-22T08:15:14;29.10;61.60
12874;DHT22;6505;51.114;13.128;2023-06-22T08:17:43;29.20;61.60
12874;DHT22;6505;51.114;13.128;2023-06-22T08:20:13;29.20;61.80
12874;DHT22;6505;51.114;13.128;2023-06-22T08:22:42;29.30;61.20
12874;DHT22;6505;51.114;13.128;2023-06-22T08:25:11;29.40;61.00
12874;DHT22;6505;51.114;13.128;2023-06-22T08:27:40;29.40;60.70
12874;DHT22;6505;51.114;13.128;2023-06-22T08:30:09;29.60;60.30
12874;DHT22;6505;51.114;13.128;2023-06-22T08:32:38;29.70;60.70
12874;DHT22;6505;51.114;13.128;2023-06-22T08:35:07;29.70;60.00
12874;DHT22;6505;51.114;13.128;2023-06-22T08:37:37;29.90;59.30
12874;DHT22;6505;51.114;13.128;2023-06-22T08:40:07;30.00;59.10
12874;DHT22;6505;51.114;13.128;2023-06-22T08:42:39;30.10;58.80
12874;DHT22;6505;51.114;13.128;2023-06-22T08:45:09;30.20;57.90
12874;DHT22;6505;51.114;13.128;2023-06-22T08:47:38;30.30;57.20
12874;DHT22;6505;51.114;13.128;2023-06-22T08:50:07;30.30;57.00
12874;DHT22;6505;51.114;13.128;2023-06-22T08:52:38;30.40;57.30
12874;DHT22;6505;51.114;13.128;2023-06-22T08:55:08;30.50;56.90
12874;DHT22;6505;51.114;13.128;2023-06-22T08:57:37;30.60;56.90
12874;DHT22;6505;51.114;13.128;2023-06-22T09:00:07;30.60;56.20
12874;DHT22;6505;51.114;13.128;2023-06-22T09:02:44;30.80;55.80
12874;DHT22;6505;51.114;13.128;2023-06-22T09:05:13;30.80;55.10
12874;DHT22;6505;51.114;13.128;2023-06-22T09:07:42;30.90;55.20
12874;DHT22;6505;51.114;13.128;2023-06-22T09:10:11;30.90;54.40
12874;DHT22;6505;51.114;13.128;2023-06-22T09:12:39;31.00;53.60
12874;DHT22;6505;51.114;13.128;2023-06-22T09:15:08;31.10;53.70
12874;DHT22;6505;51.114;13.128;2023-06-22T09:17:41;31.10;53.60
12874;DHT22;6505;51.114;13.128;2023-06-22T09:20:10;31.20;53.50
12874;DHT22;6505;51.114;13.128;2023-06-22T09:22:38;31.20;53.40
12874;DHT22;6505;51.114;13.128;2023-06-22T09:25:08;31.30;52.70
12874;DHT22;6505;51.114;13.128;2023-06-22T09:27:37;31.30;51.80
12874;DHT22;6505;51.114;13.128;2023-06-22T09:30:06;31.40;51.60
12874;DHT22;6505;51.114;13.128;2023-06-22T09:32:35;31.40;51.40
12874;DHT22;6505;51.114;13.128;2023-06-22T09:35:04;31.40;51.40
12874;DHT22;6505;51.114;13.128;2023-06-22T09:37:35;31.50;51.50
12874;DHT22;6505;51.114;13.128;2023-06-22T09:40:05;31.50;51.40
12874;DHT22;6505;51.114;13.128;2023-06-22T09:42:37;31.50;51.00
12874;DHT22;6505;51.114;13.128;2023-06-22T09:45:06;31.50;50.60
12874;DHT22;6505;51.114;13.128;2023-06-22T09:47:35;31.50;50.70
12874;DHT22;6505;51.114;13.128;2023-06-22T09:50:04;31.50;50.80
12874;DHT22;6505;51.114;13.128;2023-06-22T09:52:33;31.50;50.60
12874;DHT22;6505;51.114;13.128;2023-06-22T09:55:15;31.50;50.60
12874;DHT22;6505;51.114;13.128;2023-06-22T09:57:43;31.50;50.30
12874;DHT22;6505;51.114;13.128;2023-06-22T10:00:12;31.50;50.80
12874;DHT22;6505;51.114;13.128;2023-06-22T10:02:42;31.50;50.70
12874;DHT22;6505;51.114;13.128;2023-06-22T10:05:11;31.50;51.60
12874;DHT22;6505;51.114;13.128;2023-06-22T10:07:40;31.50;50.80
12874;DHT22;6505;51.114;13.128;2023-06-22T10:10:11;31.50;50.70
12874;DHT22;6505;51.114;13.128;2023-06-22T10:12:46;31.50;50.70
12874;DHT22;6505;51.114;13.128;2023-06-22T10:15:15;31.50;50.40
12874;DHT22;6505;51.114;13.128;2023-06-22T10:17:43;31.50;50.40
12874;DHT22;6505;51.114;13.128;2023-06-22T10:20:11;31.60;50.40
12874;DHT22;6505;51.114;13.128;2023-06-22T10:22:40;31.50;50.40
12874;DHT22;6505;51.114;13.128;2023-06-22T10:25:10;31.50;50.40
12874;DHT22;6505;51.114;13.128;2023-06-22T10:27:39;31.50;50.50
12874;DHT22;6505;51.114;13.128;2023-06-22T10:30:10;31.60;50.00
12874;DHT22;6505;51.114;13.128;2023-06-22T10:32:40;31.50;49.40
12874;DHT22;6505;51.114;13.128;2023-06-22T10:35:09;31.50;49.70
12874;DHT22;6505;51.114;13.128;2023-06-22T10:37:40;31.50;49.60
12874;DHT22;6505;51.114;13.128;2023-06-22T10:40:11;31.60;49.70
12874;DHT22;6505;51.114;13.128;2023-06-22T10:42:40;31.50;50.10
12874;DHT22;6505;51.114;13.128;2023-06-22T10:45:09;31.60;49.50
12874;DHT22;6505;51.114;13.128;2023-06-22T10:47:38;31.60;49.60
12874;DHT22;6505;51.114;13.128;2023-06-22T10:50:07;31.60;49.70
12874;DHT22;6505;51.114;13.128;2023-06-22T10:52:35;31.50;50.00
12874;DHT22;6505;51.114;13.128;2023-06-22T10:55:03;31.60;50.00
12874;DHT22;6505;51.114;13.128;2023-06-22T10:57:32;31.50;49.90
12874;DHT22;6505;51.114;13.128;2023-06-22T11:00:00;31.60;49.70
12874;DHT22;6505;51.114;13.128;2023-06-22T11:02:29;31.50;49.80
12874;DHT22;6505;51.114;13.128;2023-06-22T11:04:57;31.60;50.00
12874;DHT22;6505;51.114;13.128;2023-06-22T11:07:27;31.60;49.60
12874;DHT22;6505;51.114;13.128;2023-06-22T11:09:55;31.50;49.80
12874;DHT22;6505;51.114;13.128;2023-06-22T11:12:23;31.50;49.90
12874;DHT22;6505;51.114;13.128;2023-06-22T11:14:51;31.60;49.80
12874;DHT22;6505;51.114;13.128;2023-06-22T11:17:19;31.70;50.10
12874;DHT22;6505;51.114;13.128;2023-06-22T11:19:50;31.60;49.90
12874;DHT22;6505;51.114;13.128;2023-06-22T11:22:18;31.60;50.10
12874;DHT22;6505;51.114;13.128;2023-06-22T11:24:46;31.60;49.60
12874;DHT22;6505;51.114;13.128;2023-06-22T11:27:15;31.60;49.70
12874;DHT22;6505;51.114;13.128;2023-06-22T11:29:43;31.60;49.50
12874;DHT22;6505;51.114;13.128;2023-06-22T11:32:11;31.70;49.80
12874;DHT22;6505;51.114;13.128;2023-06-22T11:34:40;31.60;49.70
12874;DHT22;6505;51.114;13.128;2023-06-22T11:37:09;31.60;49.60
12874;DHT22;6505;51.114;13.128;2023-06-22T11:39:37;31.60;49.80
12874;DHT22;6505;51.114;13.128;2023-06-22T11:42:13;31.80;50.00
12874;DHT22;6505;51.114;13.128;2023-06-22T11:44:42;31.70;49.80
12874;DHT22;6505;51.114;13.128;2023-06-22T11:47:10;31.70;49.70
12874;DHT22;6505;51.114;13.128;2023-06-22T11:49:38;31.70;49.50
12874;DHT22;6505;51.114;13.128;2023-06-22T11:52:06;31.70;49.40
12874;DHT22;6505;51.114;13.128;2023-06-22T11:54:36;31.70;50.20
12874;DHT22;6505;51.114;13.128;2023-06-22T11:57:04;31.80;50.00
12874;DHT22;6505;51.114;13.128;2023-06-22T11:59:32;31.70;49.90
12874;DHT22;6505;51.114;13.128;2023-06-22T12:02:00;31.70;49.60
12874;DHT22;6505;51.114;13.128;2023-06-22T12:04:28;31.80;49.80
12874;DHT22;6505;51.114;13.128;2023-06-22T12:06:56;31.80;49.70
12874;DHT22;6505;51.114;13.128;2023-06-22T12:09:25;31.80;49.90
12874;DHT22;6505;51.114;13.128;2023-06-22T12:11:54;31.80;49.40
12874;DHT22;6505;51.114;13.128;2023-06-22T12:14:22;31.80;49.30
12874;DHT22;6505;51.114;13.128;2023-06-22T12:16:50;31.80;49.60
12874;DHT22;6505;51.114;13.128;2023-06-22T12:19:18;31.80;49.50
12874;DHT22;6505;51.114;13.128;2023-06-22T12:21:46;31.80;49.60
12874;DHT22;6505;51.114;13.128;2023-06-22T12:24:14;31.80;49.00
12874;DHT22;6505;51.114;13.128;2023-06-22T12:26:42;31.90;49.20
12874;DHT22;6505;51.114;13.128;2023-06-22T12:29:12;31.80;49.00
12874;DHT22;6505;51.114;13.128;2023-06-22T12:31:40;31.90;49.50
12874;DHT22;6505;51.114;13.128;2023-06-22T12:34:08;31.90;49.00
12874;DHT22;6505;51.114;13.128;2023-06-22T12:36:36;31.90;49.50
12874;DHT22;6505;51.114;13.128;2023-06-22T12:39:04;31.90;49.70
12874;DHT22;6505;51.114;13.128;2023-06-22T12:41:32;31.90;49.70
12874;DHT22;6505;51.114;13.128;2023-06-22T12:44:00;31.90;49.80
12874;DHT22;6505;51.114;13.128;2023-06-22T12:46:31;31.90;49.70
12874;DHT22;6505;51.114;13.128;2023-06-22T12:49:05;31.90;49.20
12874;DHT22;6505;51.114;13.128;2023-06-22T12:51:33;32.00;49.10
12874;DHT22;6505;51.114;13.128;2023-06-22T12:54:00;31.90;49.20
12874;DHT22;6505;51.114;13.128;2023-06-22T12:56:28;31.90;49.50
12874;DHT22;6505;51.114;13.128;2023-06-22T12:58:56;31.90;49.30
12874;DHT22;6505;51.114;13.128;2023-06-22T13:01:25;32.00;49.60
12874;DHT22;6505;51.114;13.128;2023-06-22T13:03:54;32.00;49.70
12874;DHT22;6505;51.114;13.128;2023-06-22T13:06:22;32.10;49.50
12874;DHT22;6505;51.114;13.128;2023-06-22T13:08:50;32.00;49.30
12874;DHT22;6505;51.114;13.128;2023-06-22T13:11:21;32.00;49.60
12874;DHT22;6505;51.114;13.128;2023-06-22T13:13:49;32.00;49.50
12874;DHT22;6505;51.114;13.128;2023-06-22T13:16:17;32.00;49.60
12874;DHT22;6505;51.114;13.128;2023-06-22T13:18:45;32.00;49.40
12874;DHT22;6505;51.114;13.128;2023-06-22T13:21:14;32.00;49.60
12874;DHT22;6505;51.114;13.128;2023-06-22T13:23:42;32.10;49.40
12874;DHT22;6505;51.114;13.128;2023-06-22T13:26:10;32.10;49.00
12874;DHT22;6505;51.114;13.128;2023-06-22T13:28:38;32.10;48.90
12874;DHT22;6505;51.114;13.128;2023-06-22T13:31:06;32.20;49.20
12874;DHT22;6505;51.114;13.128;2023-06-22T13:33:35;32.20;49.50
12874;DHT22;6505;51.114;13.128;2023-06-22T13:36:03;32.10;49.10
12874;DHT22;6505;51.114;13.128;2023-06-22T13:38:34;32.20;49.30
12874;DHT22;6505;51.114;13.128;2023-06-22T13:41:05;32.20;49.00
12874;DHT22;6505;51.114;13.128;2023-06-22T13:43:33;32.20;49.10
12874;DHT22;6505;51.114;13.128;2023-06-22T13:46:01;32.10;49.00
12874;DHT22;6505;51.114;13.128;2023-06-22T13:48:29;32.10;48.70
12874;DHT22;6505;51.114;13.128;2023-06-22T13:50:57;32.20;48.60
12874;DHT22;6505;51.114;13.128;2023-06-22T13:53:25;32.20;48.70
12874;DHT22;6505;51.114;13.128;2023-06-22T13:55:56;32.20;48.80
12874;DHT22;6505;51.114;13.128;2023-06-22T13:58:24;32.20;48.50
12874;DHT22;6505;51.114;13.128;2023-06-22T14:00:52;32.20;48.50
12874;DHT22;6505;51.114;13.128;2023-06-22T14:03:22;32.20;48.40
12874;DHT22;6505;51.114;13.128;2023-06-22T14:05:51;32.30;48.60
12874;DHT22;6505;51.114;13.128;2023-06-22T14:08:20;32.30;48.30
12874;DHT22;6505;51.114;13.128;2023-06-22T14:11:09;32.30;48.30
12874;DHT22;6505;51.114;13.128;2023-06-22T14:13:37;32.30;48.40
12874;DHT22;6505;51.114;13.128;2023-06-22T14:16:05;32.30;48.50
12874;DHT22;6505;51.114;13.128;2023-06-22T14:18:33;32.30;48.60
12874;DHT22;6505;51.114;13.128;2023-06-22T14:21:01;32.30;48.60
12874;DHT22;6505;51.114;13.128;2023-06-22T14:23:29;32.30;48.60
12874;DHT22;6505;51.114;13.128;2023-06-22T14:25:57;32.30;49.20
12874;DHT22;6505;51.114;13.128;2023-06-22T14:28:26;32.30;48.60
12874;DHT22;6505;51.114;13.128;2023-06-22T14:30:54;32.30;48.70
12874;DHT22;6505;51.114;13.128;2023-06-22T14:33:23;32.30;48.20
12874;DHT22;6505;51.114;13.128;2023-06-22T14:35:51;32.30;47.90
12874;DHT22;6505;51.114;13.128;2023-06-22T14:38:18;32.40;47.70
12874;DHT22;6505;51.114;13.128;2023-06-22T14:40:47;32.40;48.40
12874;DHT22;6505;51.114;13.128;2023-06-22T14:43:37;32.40;48.10
12874;DHT22;6505;51.114;13.128;2023-06-22T14:46:05;32.40;47.60
12874;DHT22;6505;51.114;13.128;2023-06-22T14:48:33;32.40;47.30
12874;DHT22;6505;51.114;13.128;2023-06-22T14:51:01;32.40;47.30
12874;DHT22;6505;51.114;13.128;2023-06-22T14:53:29;32.40;47.70
12874;DHT22;6505;51.114;13.128;2023-06-22T14:55:57;32.50;47.90
12874;DHT22;6505;51.114;13.128;2023-06-22T14:58:28;32.50;47.90
12874;DHT22;6505;51.114;13.128;2023-06-22T15:00:57;32.50;48.20
12874;DHT22;6505;51.114;13.128;2023-06-22T15:03:25;32.50;47.60
12874;DHT22;6505;51.114;13.128;2023-06-22T15:05:55;32.50;48.10
12874;DHT22;6505;51.114;13.128;2023-06-22T15:08:25;32.50;47.60
12874;DHT22;6505;51.114;13.128;2023-06-22T15:10:53;32.50;47.50
12874;DHT22;6505;51.114;13.128;2023-06-22T15:13:21;32.50;47.60
12874;DHT22;6505;51.114;13.128;2023-06-22T15:15:51;32.50;47.90
12874;DHT22;6505;51.114;13.128;2023-06-22T15:18:20;32.50;48.00
12874;DHT22;6505;51.114;13.128;2023-06-22T15:20:48;32.50;47.90
12874;DHT22;6505;51.114;13.128;2023-06-22T15:23:16;32.50;47.70
12874;DHT22;6505;51.114;13.128;2023-06-22T15:25:44;32.50;48.00
12874;DHT22;6505;51.114;13.128;2023-06-22T15:28:14;32.60;47.50
12874;DHT22;6505;51.114;13.128;2023-06-22T15:30:43;32.60;47.50
12874;DHT22;6505;51.114;13.128;2023-06-22T15:33:14;32.60;47.80
12874;DHT22;6505;51.114;13.128;2023-06-22T15:35:44;32.60;47.60
12874;DHT22;6505;51.114;13.128;2023-06-22T15:38:12;32.60;47.80
12874;DHT22;6505;51.114;13.128;2023-06-22T15:40:40;32.60;47.30
12874;DHT22;6505;51.114;13.128;2023-06-22T15:43:10;32.70;47.30